• Join FlightAware (Why Join?)
  • Login
  • US Flag 
01:43PM EDT


 

Airport Tracker/Info


-or-


 

Live Flight TrackerFlight Track Log ✈ EJA929 ✈ 26-Feb-2014 ✈ KSLC - KDEN

Flight Track Log - Related Links

Times and Time Zones

All times are in EST time to prevent confusion due to time zone crossing. See the EJA929 flight status page for this flight to view local times or setup timezone preferences in your user account.

Time Position Orientation Groundspeed Altitude Reporting Facility
EST Latitude Longitude Course Direction KTS MPH feet Rate Location/Type
08:15AM 40.7650 -111.9653 195° South 192 221 5,600  Level Salt Lake Center
08:15AM 40.7611 -111.9667 195° South 191 220 5,800 2,820 Climbing Salt Lake Center
08:16AM 40.7433 -112.0072 240° Southwest 209 241 7,800 3,240 Climbing Salt Lake Center
08:17AM 40.7903 -112.0453 328° Northwest 228 262 11,200 2,820 Climbing Salt Lake Center
08:18AM 40.8386 -111.9708 49° Northeast 292 336 13,500 2,040 Climbing Salt Lake Center
08:19AM 40.8564 -111.8511 79° East 351 404 15,400 2,040 Climbing Salt Lake Center
08:20AM 40.8903 -111.7319 69° East 355 409 17,700 1,980 Climbing Salt Lake Center
08:21AM 40.9231 -111.6044 71° East 375 432 19,400 1,260 Climbing Salt Lake Center
08:22AM 40.9139 -111.4569 95° East 407 468 20,300 960 Climbing Salt Lake Center
08:23AM 40.8983 -111.2986 97° East 434 499 21,400 1,200 Climbing Salt Lake Center
08:24AM 40.8781 -111.1378 99° East 444 511 22,800 1,380 Climbing Salt Lake Center
08:25AM 40.8581 -110.9736 99° East 453 521 24,200 1,080 Climbing Salt Lake Center
08:26AM 40.8375 -110.8072 99° East 461 531 25,000 960 Climbing Salt Lake Center
08:27AM 40.8169 -110.6367 99° East 471 542 26,200 1,800 Climbing Salt Lake Center
08:28AM 40.7931 -110.4447 99° East 481 554 28,700 1,860 Climbing Salt Lake Center
08:29AM 40.7717 -110.2736 99° East 494 568 30,000 600 Climbing Salt Lake Center
08:30AM 40.7453 -110.0733 100° East 529 609 30,000  Level Salt Lake Center
08:31AM 40.7311 -109.8836 96° East 540 621 30,000  Level Salt Lake Center
08:32AM 40.7147 -109.6606 95° East 545 627 30,000 720 Level Salt Lake Center
08:33AM 40.7008 -109.4700 95° East 545 627 31,500 1,440 Climbing Salt Lake Center
08:34AM 40.6869 -109.2792 95° East 545 627 33,000 720 Climbing Salt Lake Center
08:35AM 40.6719 -109.0811 96° East 546 628 33,000  Level Salt Lake Center
08:36AM 40.6628 -108.9575 96° East 546 628 33,000  Level Denver Center
08:37AM 40.6483 -108.7725 96° East 534 615 33,000  Level Denver Center
08:38AM 40.6333 -108.5897 96° East 526 605 33,000  Level Denver Center
08:39AM 40.6153 -108.3786 96° East 520 598 33,000  Level Denver Center
08:40AM 40.5994 -108.1972 96° East 520 598 33,000  Level Denver Center
08:41AM 40.5847 -108.0172 96° East 517 595 33,000  Level Denver Center
08:42AM 40.5689 -107.8378 97° East 516 594 33,000  Level Denver Center
08:43AM 40.5525 -107.6253 96° East 521 600 33,000  Level Denver Center
08:44AM 40.5392 -107.4453 96° East 518 596 33,000  Level Denver Center
08:45AM 40.5258 -107.2639 95° East 519 597 33,000  Level Denver Center
08:46AM 40.5108 -107.0756 96° East 523 602 33,000  Level Denver Center
08:47AM 40.4972 -106.8847 95° East 522 601 33,000  Level Denver Center
08:48AM 40.4814 -106.6964 96° East 519 597 33,000  Level Denver Center
08:49AM 40.4642 -106.4781 96° East 521 600 33,000 -1,020 Level Denver Center
08:50AM 40.4489 -106.2956 96° East 526 605 31,000 -2,220 Descending Denver Center
08:51AM 40.4358 -106.1225 96° East 536 617 28,500 -2,880 Descending Denver Center
08:52AM 40.4167 -105.8964 96° East 522 601 25,200 -2,940 Descending Denver Center
08:53AM 40.3986 -105.7164 97° East 503 579 22,600 -2,460 Descending Denver Center
08:54AM 40.3764 -105.5556 100° East 454 522 20,300 -2,040 Descending Denver Center
08:55AM 40.3531 -105.4064 102° East 424 488 18,500 -1,740 Descending Denver Center
08:56AM 40.3350 -105.2775 100° East 366 421 16,900 -1,560 Descending Denver Center
08:57AM 40.3186 -105.1583 100° East 338 389 15,400 -1,380 Descending Denver Center
08:58AM 40.3033 -105.0483 100° East 313 360 14,100 -1,200 Descending Denver Center
08:59AM 40.2892 -104.9483 100° East 286 329 13,000 -1,200 Descending Denver Center
09:00AM 40.2464 -104.8650 124° Southeast 284 327 11,800 -1,140 Descending Denver Center
09:01AM 40.1908 -104.7825 131° Southeast 282 325 10,800 -1,140 Descending Denver Center
09:02AM 40.1283 -104.7386 152° Southeast 261 300 9,600 -1,020 Descending Denver Center
09:03AM 40.0656 -104.6986 154° Southeast 254 292 8,800 -1,140 Descending Denver Center
09:04AM 40.0031 -104.6942 177° South 229 264 7,300 -1,200 Descending Denver Center
09:05AM 39.9494 -104.6956 181° South 196 226 6,500 -900 Descending Denver Center
09:06AM 39.9106 -104.6958 180° South 148 170 5,600 -600 Descending Denver Center
09:07AM 39.8786 -104.6958 180° South 132 152 5,300 -300 Descending Denver Center
09:09AM 39.8617 -104.6732 180° South  Level Estimated
09:16AM 39.8617 -104.6732 180° South  Level Estimated
09:17AM 39.8617 -104.6732 180° South  Level Estimated